createdAt,value
2023-03-07T00:00:36.287Z,81.02
2023-03-07T00:01:36.261Z,81.54
2023-03-07T00:02:36.258Z,81.43
2023-03-07T00:03:36.254Z,80.81
2023-03-07T00:04:36.261Z,81.02
2023-03-07T00:05:36.244Z,80.91
2023-03-07T00:06:36.239Z,80.19
2023-03-07T00:07:36.216Z,80.60
2023-03-07T00:08:36.222Z,80.29
2023-03-07T00:09:37.179Z,80.40
2023-03-07T00:10:36.186Z,80.81
2023-03-07T00:11:36.177Z,80.29
2023-03-07T00:12:36.162Z,80.29
2023-03-07T00:13:36.143Z,79.77
2023-03-07T00:14:36.157Z,80.19
2023-03-07T00:15:36.121Z,80.50
2023-03-07T00:16:36.133Z,80.57
2023-03-07T00:17:36.100Z,79.87
2023-03-07T00:18:36.117Z,79.87
2023-03-07T00:19:36.083Z,79.77
2023-03-07T00:20:36.075Z,79.77
2023-03-07T00:21:36.079Z,79.66
2023-03-07T00:22:36.058Z,80.19
2023-03-07T00:23:36.049Z,80.60
2023-03-07T00:24:36.041Z,80.40
2023-03-07T00:25:36.028Z,80.29
2023-03-07T00:26:36.031Z,80.15
2023-03-07T00:27:36.009Z,80.81
2023-03-07T00:28:36.012Z,80.29
2023-03-07T00:29:36.050Z,80.40
2023-03-07T00:30:35.977Z,80.19
2023-03-07T00:31:35.990Z,80.05
2023-03-07T00:32:36.042Z,80.15
2023-03-07T00:33:35.969Z,80.19
2023-03-07T00:34:35.957Z,80.19
2023-03-07T00:35:35.942Z,80.26
2023-03-07T00:36:35.920Z,80.26
2023-03-07T00:37:35.911Z,80.67
2023-03-07T00:38:35.917Z,80.46
2023-03-07T00:39:35.889Z,81.43
2023-03-07T00:40:35.887Z,81.02
2023-03-07T00:41:35.888Z,81.02
2023-03-07T00:42:35.864Z,80.81
2023-03-07T00:43:35.859Z,81.02
2023-03-07T00:44:35.860Z,81.43
2023-03-07T00:45:35.840Z,81.43
2023-03-07T00:46:35.848Z,81.96
2023-03-07T00:47:35.826Z,81.75
2023-03-07T00:48:35.818Z,82.17
2023-03-07T00:49:35.828Z,82.37
2023-03-07T00:50:35.795Z,82.48
2023-03-07T00:51:35.783Z,82.79
2023-03-07T00:52:35.782Z,83.20
2023-03-07T00:53:35.761Z,83.62
2023-03-07T00:54:35.792Z,84.04
2023-03-07T00:55:35.745Z,84.70
2023-03-07T00:56:35.744Z,84.60
2023-03-07T00:57:35.729Z,85.29
2023-03-07T00:58:35.730Z,85.64
2023-03-07T00:59:35.753Z,86.06
2023-03-07T01:00:35.711Z,86.27
2023-03-07T01:01:35.718Z,87.10
2023-03-07T01:02:35.676Z,87.30
2023-03-07T01:03:35.679Z,87.24
2023-03-07T01:04:36.730Z,87.83
2023-03-07T01:05:35.683Z,88.76
2023-03-07T01:06:35.656Z,88.49
2023-03-07T01:07:35.627Z,88.14
2023-03-07T01:08:35.654Z,88.70
2023-03-07T01:09:35.611Z,88.76
2023-03-07T01:10:35.600Z,89.01
2023-03-07T01:11:35.610Z,88.91
2023-03-07T01:12:35.604Z,88.60
2023-03-07T01:13:35.572Z,88.56
2023-03-07T01:14:35.573Z,88.56
2023-03-07T01:15:36.563Z,89.22
2023-03-07T01:16:35.596Z,89.01
2023-03-07T01:17:35.566Z,89.22
2023-03-07T01:18:35.558Z,89.22
2023-03-07T01:19:35.568Z,89.64
2023-03-07T01:20:35.510Z,89.32
2023-03-07T01:21:35.502Z,89.75
2023-03-07T01:22:35.494Z,89.85
2023-03-07T01:23:35.487Z,90.37
2023-03-07T01:24:35.496Z,90.16
2023-03-07T01:26:07.385Z,90.06
2023-03-07T01:26:35.474Z,90.58
2023-03-07T01:27:35.457Z,90.26
2023-03-07T01:28:35.455Z,90.68
2023-03-07T01:29:35.465Z,90.52
2023-03-07T01:30:35.436Z,91.00
2023-03-07T01:31:35.464Z,90.58
2023-03-07T01:32:35.488Z,91.00
2023-03-07T01:33:35.398Z,90.79
2023-03-07T01:34:35.421Z,90.68
2023-03-07T01:35:35.434Z,90.58
2023-03-07T01:36:35.383Z,90.89
2023-03-07T01:37:35.358Z,90.68
2023-03-07T01:38:35.362Z,90.58
2023-03-07T01:39:35.369Z,90.79
2023-03-07T01:40:35.335Z,90.47
2023-03-07T01:41:35.316Z,90.68
2023-03-07T01:42:35.315Z,91.00
2023-03-07T01:43:35.325Z,91.00
2023-03-07T01:44:35.344Z,91.10
2023-03-07T01:45:35.360Z,90.54
2023-03-07T01:46:35.300Z,91.10
2023-03-07T01:47:35.289Z,90.79
2023-03-07T01:48:35.267Z,90.58
2023-03-07T01:49:35.317Z,91.52
2023-03-07T01:50:35.268Z,90.89
2023-03-07T01:51:35.236Z,91.00
2023-03-07T01:52:35.246Z,90.89
2023-03-07T01:53:35.217Z,91.00
2023-03-07T01:54:35.230Z,91.00
2023-03-07T01:55:35.218Z,91.00
2023-03-07T01:56:35.212Z,90.85
2023-03-07T01:57:35.181Z,90.79
2023-03-07T01:58:35.185Z,90.95
2023-03-07T01:59:35.197Z,90.85
2023-03-07T02:00:35.157Z,90.58
2023-03-07T02:01:35.197Z,90.64
2023-03-07T02:02:35.160Z,90.64
2023-03-07T02:03:35.133Z,90.95
2023-03-07T02:04:35.195Z,90.75
2023-03-07T02:05:35.113Z,90.95
2023-03-07T02:06:35.102Z,90.54
2023-03-07T02:07:35.091Z,90.95
2023-03-07T02:08:35.095Z,90.75
2023-03-07T02:09:35.104Z,91.37
2023-03-07T02:10:35.074Z,90.64
2023-03-07T02:11:35.057Z,90.75
2023-03-07T02:12:35.058Z,90.79
2023-03-07T02:13:35.058Z,90.75
2023-03-07T02:14:35.025Z,90.85
2023-03-07T02:15:35.086Z,91.27
2023-03-07T02:16:35.003Z,91.16
2023-03-07T02:17:34.994Z,92.21
2023-03-07T02:18:34.988Z,91.27
2023-03-07T02:19:34.966Z,91.16
2023-03-07T02:20:34.977Z,91.37
2023-03-07T02:21:34.960Z,91.27
2023-03-07T02:22:34.935Z,91.20
2023-03-07T02:23:34.959Z,91.52
2023-03-07T02:24:35.009Z,91.78
2023-03-07T02:25:34.958Z,92.03
2023-03-07T02:26:34.914Z,92.00
2023-03-07T02:27:34.904Z,91.68
2023-03-07T02:28:34.892Z,92.10
2023-03-07T02:29:34.868Z,92.21
2023-03-07T02:30:34.860Z,92.14
2023-03-07T02:31:34.884Z,91.89
2023-03-07T02:32:34.917Z,92.00
2023-03-07T02:33:34.857Z,92.52
2023-03-07T02:34:34.843Z,92.56
2023-03-07T02:35:34.836Z,92.35
2023-03-07T02:36:34.903Z,92.56
2023-03-07T02:37:34.830Z,92.52
2023-03-07T02:38:34.790Z,92.25
2023-03-07T02:39:34.787Z,92.66
2023-03-07T02:40:34.805Z,92.31
2023-03-07T02:41:34.760Z,92.62
2023-03-07T02:42:34.754Z,92.62
2023-03-07T02:43:34.750Z,92.56
2023-03-07T02:44:34.732Z,92.52
2023-03-07T02:45:35.760Z,92.87
2023-03-07T02:46:34.724Z,92.66
2023-03-07T02:47:34.713Z,92.83
2023-03-07T02:48:34.707Z,92.72
2023-03-07T02:49:34.690Z,92.87
2023-03-07T02:50:34.715Z,92.87
2023-03-07T02:51:34.658Z,93.18
2023-03-07T02:52:34.655Z,92.97
2023-03-07T02:53:34.668Z,93.40
2023-03-07T02:54:34.660Z,93.46
2023-03-07T02:55:34.662Z,93.46
2023-03-07T02:56:34.628Z,93.14
2023-03-07T02:57:34.610Z,92.97
2023-03-07T02:58:34.619Z,93.40
2023-03-07T02:59:34.575Z,93.50
2023-03-07T03:00:34.619Z,93.77
2023-03-07T03:01:34.666Z,93.71
2023-03-07T03:02:34.578Z,93.66
2023-03-07T03:03:34.566Z,93.77
2023-03-07T03:04:34.581Z,93.81
2023-03-07T03:05:34.545Z,94.02
2023-03-07T03:06:34.548Z,93.81
2023-03-07T03:07:34.526Z,93.91
2023-03-07T03:08:34.506Z,94.02
2023-03-07T03:09:34.511Z,93.71
2023-03-07T03:10:34.494Z,93.81
2023-03-07T03:11:34.497Z,94.02
2023-03-07T03:12:34.460Z,94.18
2023-03-07T03:13:34.455Z,93.91
2023-03-07T03:14:34.455Z,94.02
2023-03-07T03:15:34.446Z,94.02
2023-03-07T03:16:34.427Z,93.77
2023-03-07T03:17:34.419Z,93.56
2023-03-07T03:18:34.427Z,93.24
2023-03-07T03:19:34.418Z,93.60
2023-03-07T03:20:34.389Z,93.91
2023-03-07T03:21:34.391Z,94.08
2023-03-07T03:22:34.386Z,93.66
2023-03-07T03:23:34.363Z,93.77
2023-03-07T03:24:34.350Z,93.66
2023-03-07T03:25:34.336Z,93.98
2023-03-07T03:26:34.341Z,93.87
2023-03-07T03:27:34.345Z,93.77
2023-03-07T03:28:34.315Z,93.77
2023-03-07T03:29:34.325Z,94.23
2023-03-07T03:30:34.291Z,93.77
2023-03-07T03:31:34.343Z,93.66
2023-03-07T03:32:34.350Z,93.46
2023-03-07T03:33:34.275Z,93.46
2023-03-07T03:34:34.274Z,93.46
2023-03-07T03:35:34.278Z,93.46
2023-03-07T03:36:34.230Z,93.46
2023-03-07T03:37:34.216Z,93.56
2023-03-07T03:38:34.249Z,93.77
2023-03-07T03:39:34.204Z,93.77
2023-03-07T03:40:34.192Z,93.77
2023-03-07T03:41:34.194Z,93.77
2023-03-07T03:42:34.200Z,93.87
2023-03-07T03:43:34.187Z,94.02
2023-03-07T03:44:34.153Z,94.18
2023-03-07T03:45:34.137Z,94.18
2023-03-07T03:46:34.175Z,94.02
2023-03-07T03:47:34.136Z,94.18
2023-03-07T03:48:34.112Z,93.87
2023-03-07T03:49:34.098Z,94.18
2023-03-07T03:50:34.092Z,94.08
2023-03-07T03:51:34.105Z,93.98
2023-03-07T03:52:34.075Z,93.87
2023-03-07T03:53:34.069Z,93.87
2023-03-07T03:54:34.082Z,94.08
2023-03-07T03:55:34.035Z,94.08
2023-03-07T03:56:34.042Z,93.98
2023-03-07T03:57:34.023Z,93.87
2023-03-07T03:58:34.014Z,93.98
2023-03-07T03:59:34.024Z,94.18
2023-03-07T04:00:34.019Z,94.18
2023-03-07T04:01:34.070Z,93.77
2023-03-07T04:02:34.057Z,94.29
2023-03-07T04:03:34.101Z,93.98
2023-03-07T04:04:33.976Z,93.66
2023-03-07T04:05:33.951Z,93.87
2023-03-07T04:06:33.945Z,93.77
2023-03-07T04:07:33.946Z,93.66
2023-03-07T04:08:33.922Z,93.35
2023-03-07T04:09:33.902Z,93.77
2023-03-07T04:10:33.921Z,93.77
2023-03-07T04:11:33.891Z,93.73
2023-03-07T04:12:33.876Z,93.41
2023-03-07T04:13:33.875Z,93.20
2023-03-07T04:14:33.875Z,93.20
2023-03-07T04:15:33.841Z,93.31
2023-03-07T04:16:33.935Z,93.41
2023-03-07T04:17:33.819Z,93.10
2023-03-07T04:18:33.841Z,93.10
2023-03-07T04:19:33.821Z,92.89
2023-03-07T04:20:33.798Z,93.20
2023-03-07T04:21:33.817Z,93.31
2023-03-07T04:22:33.821Z,93.10
2023-03-07T04:23:33.793Z,93.10
2023-03-07T04:24:33.767Z,93.20
2023-03-07T04:25:33.763Z,93.31
2023-03-07T04:26:33.745Z,93.31
2023-03-07T04:27:33.747Z,92.85
2023-03-07T04:28:33.714Z,92.89
2023-03-07T04:29:33.712Z,92.99
2023-03-07T04:30:33.730Z,93.20
2023-03-07T04:31:33.706Z,93.37
2023-03-07T04:32:33.733Z,93.05
2023-03-07T04:33:33.668Z,92.99
2023-03-07T04:34:33.662Z,92.95
2023-03-07T04:35:33.681Z,93.48
2023-03-07T04:36:33.685Z,93.05
2023-03-07T04:37:33.627Z,92.99
2023-03-07T04:38:33.618Z,92.95
2023-03-07T04:39:33.650Z,92.85
2023-03-07T04:40:33.601Z,93.16
2023-03-07T04:41:33.635Z,93.52
2023-03-07T04:42:33.580Z,93.37
2023-03-07T04:43:33.603Z,92.85
2023-03-07T04:44:33.674Z,92.74
2023-03-07T04:45:33.588Z,92.74
2023-03-07T04:46:33.554Z,92.79
2023-03-07T04:47:33.545Z,92.64
2023-03-07T04:48:33.625Z,92.85
2023-03-07T04:49:33.522Z,92.64
2023-03-07T04:50:33.513Z,92.74
2023-03-07T04:51:33.514Z,92.60
2023-03-07T04:52:33.501Z,92.54
2023-03-07T04:53:33.514Z,92.74
2023-03-07T04:54:33.500Z,92.33
2023-03-07T04:55:33.454Z,92.60
2023-03-07T04:56:33.476Z,92.74
2023-03-07T04:57:33.446Z,92.74
2023-03-07T04:58:33.434Z,92.64
2023-03-07T04:59:33.447Z,92.54
2023-03-07T05:00:33.433Z,92.95
2023-03-07T05:01:33.437Z,92.85
2023-03-07T05:02:33.398Z,92.74
2023-03-07T05:03:33.421Z,92.95
2023-03-07T05:04:33.416Z,92.60
2023-03-07T05:05:33.373Z,92.64
2023-03-07T05:06:33.391Z,92.85
2023-03-07T05:07:33.363Z,93.16
2023-03-07T05:08:33.374Z,92.74
2023-03-07T05:09:33.324Z,93.05
2023-03-07T05:10:33.311Z,92.95
2023-03-07T05:11:33.318Z,93.05
2023-03-07T05:12:33.336Z,93.12
2023-03-07T05:13:33.382Z,93.33
2023-03-07T05:14:33.279Z,93.05
2023-03-07T05:15:33.337Z,92.95
2023-03-07T05:16:33.265Z,93.05
2023-03-07T05:17:33.272Z,93.01
2023-03-07T05:18:33.244Z,92.91
2023-03-07T05:19:33.257Z,92.95
2023-03-07T05:20:33.302Z,92.60
2023-03-07T05:21:33.241Z,92.95
2023-03-07T05:22:33.221Z,92.60
2023-03-07T05:23:33.221Z,92.91
2023-03-07T05:24:33.193Z,92.60
2023-03-07T05:25:33.179Z,92.60
2023-03-07T05:26:33.168Z,92.80
2023-03-07T05:27:33.165Z,92.60
2023-03-07T05:28:33.183Z,92.70
2023-03-07T05:29:33.140Z,92.60
2023-03-07T05:30:33.131Z,92.70
2023-03-07T05:31:33.207Z,92.18
2023-03-07T05:32:33.148Z,92.70
2023-03-07T05:33:33.133Z,92.70
2023-03-07T05:34:33.101Z,92.80
2023-03-07T05:35:33.095Z,92.80
2023-03-07T05:36:33.081Z,92.80
2023-03-07T05:37:33.059Z,92.49
2023-03-07T05:38:33.033Z,92.39
2023-03-07T05:39:34.067Z,92.39
2023-03-07T05:40:33.041Z,92.70
2023-03-07T05:41:33.027Z,92.60
2023-03-07T05:42:33.033Z,92.39
2023-03-07T05:43:33.004Z,92.08
2023-03-07T05:44:34.155Z,92.39
2023-03-07T05:45:33.997Z,92.49
2023-03-07T05:46:32.985Z,92.49
2023-03-07T05:47:33.011Z,92.29
2023-03-07T05:48:32.963Z,92.24
2023-03-07T05:49:32.941Z,92.60
2023-03-07T05:50:32.941Z,92.08
2023-03-07T05:51:32.928Z,92.29
2023-03-07T05:52:32.938Z,92.49
2023-03-07T05:53:32.910Z,92.14
2023-03-07T05:54:32.907Z,92.35
2023-03-07T05:55:32.894Z,92.39
2023-03-07T05:56:32.883Z,92.29
2023-03-07T05:57:32.899Z,92.39
2023-03-07T05:58:32.867Z,92.45
2023-03-07T05:59:32.889Z,92.45
2023-03-07T06:00:32.836Z,92.45
2023-03-07T06:01:32.850Z,92.14
2023-03-07T06:02:32.882Z,92.45
2023-03-07T06:03:32.872Z,92.14
2023-03-07T06:04:32.808Z,92.24
2023-03-07T06:05:32.820Z,92.14
2023-03-07T06:06:32.788Z,92.24
2023-03-07T06:07:32.800Z,92.45
2023-03-07T06:08:32.754Z,92.35
2023-03-07T06:09:32.803Z,91.83
2023-03-07T06:10:32.772Z,92.35
2023-03-07T06:11:32.748Z,92.03
2023-03-07T06:12:32.741Z,92.45
2023-03-07T06:13:32.745Z,92.35
2023-03-07T06:14:32.714Z,92.55
2023-03-07T06:15:32.699Z,92.14
2023-03-07T06:16:32.679Z,92.03
2023-03-07T06:17:32.716Z,92.14
2023-03-07T06:18:32.697Z,92.14
2023-03-07T06:19:32.708Z,92.03
2023-03-07T06:20:32.647Z,92.14
2023-03-07T06:21:32.638Z,92.14
2023-03-07T06:22:32.627Z,92.24
2023-03-07T06:23:32.611Z,92.03
2023-03-07T06:24:32.633Z,92.20
2023-03-07T06:25:32.590Z,91.89
2023-03-07T06:26:32.585Z,91.62
2023-03-07T06:27:32.613Z,92.20
2023-03-07T06:28:33.100Z,91.93
2023-03-07T06:29:33.555Z,92.03
2023-03-07T06:30:32.549Z,91.93
2023-03-07T06:31:32.621Z,91.83
2023-03-07T06:32:32.661Z,91.52
2023-03-07T06:33:32.507Z,92.24
2023-03-07T06:34:32.512Z,91.58
2023-03-07T06:35:32.530Z,91.31
2023-03-07T06:36:32.492Z,91.41
2023-03-07T06:37:32.480Z,91.58
2023-03-07T06:38:32.488Z,91.68
2023-03-07T06:39:32.475Z,90.85
2023-03-07T06:40:32.485Z,90.95
2023-03-07T06:41:32.465Z,91.06
2023-03-07T06:42:32.433Z,91.37
2023-03-07T06:43:32.437Z,91.06
2023-03-07T06:44:32.416Z,91.06
2023-03-07T06:45:32.427Z,90.33
2023-03-07T06:46:32.390Z,90.70
2023-03-07T06:47:32.420Z,90.81
2023-03-07T06:48:32.374Z,90.39
2023-03-07T06:49:32.370Z,90.95
2023-03-07T06:50:35.487Z,90.85
2023-03-07T06:51:33.334Z,90.95
2023-03-07T06:52:32.331Z,90.44
2023-03-07T06:53:32.379Z,90.44
2023-03-07T06:54:32.322Z,90.44
2023-03-07T06:55:32.311Z,89.81
2023-03-07T06:56:32.298Z,90.85
2023-03-07T06:57:32.293Z,89.77
2023-03-07T06:58:32.303Z,89.87
2023-03-07T06:59:32.315Z,91.02
2023-03-07T07:00:32.272Z,90.39
2023-03-07T07:01:32.245Z,89.87
2023-03-07T07:02:32.378Z,90.29
2023-03-07T07:03:32.268Z,89.77
2023-03-07T07:04:32.247Z,90.14
2023-03-07T07:05:32.217Z,89.67
2023-03-07T07:06:32.220Z,89.77
2023-03-07T07:07:32.191Z,88.90
2023-03-07T07:08:32.210Z,89.25
2023-03-07T07:09:32.172Z,89.25
2023-03-07T07:10:32.160Z,89.42
2023-03-07T07:11:32.160Z,88.79
2023-03-07T07:12:32.169Z,89.00
2023-03-07T07:13:32.162Z,88.79
2023-03-07T07:14:32.131Z,89.11
2023-03-07T07:15:32.150Z,89.21
2023-03-07T07:16:32.143Z,88.79
2023-03-07T07:17:32.108Z,89.11
2023-03-07T07:18:32.092Z,88.48
2023-03-07T07:19:32.102Z,88.48
2023-03-07T07:20:32.097Z,88.48
2023-03-07T07:21:32.078Z,88.17
2023-03-07T07:22:32.083Z,88.17
2023-03-07T07:23:32.036Z,88.17
2023-03-07T07:24:32.049Z,88.07
2023-03-07T07:25:32.008Z,88.23
2023-03-07T07:27:03.987Z,88.02
2023-03-07T07:27:31.993Z,87.96
2023-03-07T07:28:31.975Z,87.71
2023-03-07T07:29:31.975Z,87.82
2023-03-07T07:30:31.971Z,88.44
2023-03-07T07:31:31.962Z,88.44
2023-03-07T07:32:33.187Z,88.09
2023-03-07T07:33:32.078Z,86.74
2023-03-07T07:34:31.914Z,87.47
2023-03-07T07:35:31.949Z,87.68
2023-03-07T07:36:31.912Z,87.09
2023-03-07T07:37:31.906Z,87.47
2023-03-07T07:38:31.897Z,86.85
2023-03-07T07:39:31.902Z,86.85
2023-03-07T07:40:31.865Z,87.47
2023-03-07T07:41:31.865Z,87.05
2023-03-07T07:42:32.406Z,86.95
2023-03-07T07:43:32.867Z,86.85
2023-03-07T07:44:31.861Z,87.05
2023-03-07T07:45:31.847Z,87.26
2023-03-07T07:46:31.805Z,87.26
2023-03-07T07:47:31.814Z,86.95
2023-03-07T07:48:31.801Z,86.95
2023-03-07T07:49:31.795Z,87.05
2023-03-07T07:50:31.777Z,87.12
2023-03-07T07:51:31.771Z,86.91
2023-03-07T07:52:31.769Z,86.60
2023-03-07T07:53:31.740Z,86.49
2023-03-07T07:54:31.729Z,86.22
2023-03-07T07:55:32.731Z,86.70
2023-03-07T07:56:31.729Z,87.01
2023-03-07T07:57:31.721Z,86.70
2023-03-07T07:58:31.708Z,86.60
2023-03-07T07:59:31.680Z,86.49
2023-03-07T08:00:31.702Z,86.70
2023-03-07T08:01:31.667Z,86.49
2023-03-07T08:02:31.743Z,85.77
2023-03-07T08:03:31.684Z,85.25
2023-03-07T08:04:31.655Z,85.56
2023-03-07T08:05:31.664Z,86.39
2023-03-07T08:06:31.622Z,85.19
2023-03-07T08:07:31.623Z,86.29
2023-03-07T08:08:31.613Z,86.08
2023-03-07T08:09:31.590Z,85.56
2023-03-07T08:10:31.609Z,85.87
2023-03-07T08:11:31.597Z,86.08
2023-03-07T08:12:31.572Z,86.18
2023-03-07T08:13:31.572Z,85.14
2023-03-07T08:14:31.570Z,85.46
2023-03-07T08:15:31.595Z,85.04
2023-03-07T08:16:31.530Z,85.04
2023-03-07T08:17:31.524Z,84.83
2023-03-07T08:18:31.511Z,85.14
2023-03-07T08:19:31.520Z,85.39
2023-03-07T08:20:31.485Z,85.46
2023-03-07T08:21:31.482Z,85.46
2023-03-07T08:22:31.482Z,85.46
2023-03-07T08:23:31.457Z,85.50
2023-03-07T08:24:40.257Z,84.94
2023-03-07T08:25:32.457Z,85.25
2023-03-07T08:26:32.432Z,84.94
2023-03-07T08:27:31.432Z,85.14
2023-03-07T08:28:31.431Z,85.04
2023-03-07T08:29:31.406Z,84.73
2023-03-07T08:30:31.425Z,85.14
2023-03-07T08:31:31.457Z,85.46
2023-03-07T08:32:31.398Z,85.25
2023-03-07T08:33:31.371Z,85.14
2023-03-07T08:34:31.370Z,85.31
2023-03-07T08:35:31.380Z,85.00
2023-03-07T08:36:31.400Z,84.69
2023-03-07T08:37:31.342Z,84.63
2023-03-07T08:38:31.325Z,84.38
2023-03-07T08:39:31.323Z,84.28
2023-03-07T08:40:31.301Z,84.31
2023-03-07T08:41:31.311Z,84.28
2023-03-07T08:42:31.371Z,84.07
2023-03-07T08:43:31.292Z,84.42
2023-03-07T08:44:31.256Z,84.17
2023-03-07T08:45:31.239Z,83.97
2023-03-07T08:46:31.275Z,84.17
2023-03-07T08:47:31.260Z,84.17
2023-03-07T08:48:31.227Z,84.28
2023-03-07T08:49:31.204Z,83.86
2023-03-07T08:50:31.210Z,83.69
2023-03-07T08:51:31.201Z,83.38
2023-03-07T08:52:31.201Z,83.55
2023-03-07T08:53:31.173Z,83.28
2023-03-07T08:54:31.174Z,83.24
2023-03-07T08:55:31.155Z,83.55
2023-03-07T08:56:31.143Z,83.65
2023-03-07T08:57:31.151Z,83.45
2023-03-07T08:58:31.121Z,83.55
2023-03-07T08:59:31.142Z,83.86
2023-03-07T09:00:31.103Z,83.03
2023-03-07T09:01:31.123Z,82.62
2023-03-07T09:02:31.096Z,82.51
2023-03-07T09:03:31.071Z,82.51
2023-03-07T09:04:31.167Z,82.51
2023-03-07T09:05:31.046Z,82.37
2023-03-07T09:06:31.059Z,82.79
2023-03-07T09:07:31.022Z,82.27
2023-03-07T09:08:31.035Z,81.68
2023-03-07T09:09:31.011Z,81.65
2023-03-07T09:10:31.022Z,81.65
2023-03-07T09:11:31.011Z,82.17
2023-03-07T09:12:31.061Z,80.71
2023-03-07T09:13:33.016Z,81.02
2023-03-07T09:14:30.961Z,81.09
2023-03-07T09:15:30.963Z,80.57
2023-03-07T09:16:30.995Z,80.78
2023-03-07T09:17:30.960Z,80.95
2023-03-07T09:18:31.760Z,80.47
2023-03-07T09:19:31.935Z,79.85
2023-03-07T09:20:30.897Z,79.54
2023-03-07T09:21:30.916Z,79.54
2023-03-07T09:22:30.893Z,79.13
2023-03-07T09:23:30.877Z,79.40
2023-03-07T09:24:30.876Z,79.71
2023-03-07T09:25:30.866Z,79.30
2023-03-07T09:26:30.879Z,79.50
2023-03-07T09:27:30.860Z,78.22
2023-03-07T09:28:30.858Z,78.53
2023-03-07T09:29:30.836Z,77.91
2023-03-07T09:30:30.834Z,77.50
2023-03-07T09:31:30.832Z,77.29
2023-03-07T09:32:30.858Z,76.98
2023-03-07T09:33:30.786Z,77.60
2023-03-07T09:34:30.790Z,75.60
2023-03-07T09:35:30.855Z,75.60
2023-03-07T09:36:30.755Z,75.98
2023-03-07T09:37:30.756Z,76.39
2023-03-07T09:38:30.758Z,75.78
2023-03-07T09:39:30.762Z,75.26
2023-03-07T09:40:30.726Z,75.57
2023-03-07T09:41:30.713Z,75.26
2023-03-07T09:42:30.701Z,74.84
2023-03-07T09:43:30.691Z,75.05
2023-03-07T09:44:30.692Z,74.74
2023-03-07T09:45:30.776Z,73.91
2023-03-07T09:46:30.659Z,74.81
2023-03-07T09:47:30.669Z,74.60
2023-03-07T09:48:30.631Z,74.22
2023-03-07T09:49:30.618Z,74.60
2023-03-07T09:50:30.653Z,74.02
2023-03-07T09:51:30.615Z,73.64
2023-03-07T09:52:30.618Z,73.77
2023-03-07T09:53:30.592Z,73.57
2023-03-07T09:54:30.570Z,73.47
2023-03-07T09:55:30.553Z,73.36
2023-03-07T09:56:30.577Z,73.16
2023-03-07T09:57:30.553Z,73.88
2023-03-07T09:58:30.546Z,73.16
2023-03-07T09:59:30.571Z,73.71
2023-03-07T10:00:30.541Z,73.50
2023-03-07T10:01:30.516Z,73.19
2023-03-07T10:02:30.498Z,73.19
2023-03-07T10:03:30.572Z,72.26
2023-03-07T10:04:30.548Z,73.08
2023-03-07T10:05:30.475Z,73.50
2023-03-07T10:06:30.472Z,73.74
2023-03-07T10:07:30.487Z,74.22
2023-03-07T10:08:30.449Z,74.53
2023-03-07T10:09:30.436Z,74.63
2023-03-07T10:10:30.423Z,73.98
2023-03-07T10:11:30.447Z,74.02
2023-03-07T10:12:30.422Z,73.50
2023-03-07T10:13:30.397Z,73.91
2023-03-07T10:14:30.439Z,73.36
2023-03-07T10:15:30.436Z,74.63
2023-03-07T10:16:30.389Z,73.47
2023-03-07T10:17:30.358Z,73.88
2023-03-07T10:18:30.365Z,74.02
2023-03-07T10:19:30.345Z,73.67
2023-03-07T10:20:30.323Z,73.47
2023-03-07T10:21:30.316Z,73.08
2023-03-07T10:22:30.321Z,73.50
2023-03-07T10:23:30.345Z,73.71
2023-03-07T10:24:30.358Z,73.71
2023-03-07T10:25:30.306Z,73.81
2023-03-07T10:26:30.285Z,74.02
2023-03-07T10:27:30.267Z,73.60
2023-03-07T10:28:30.248Z,73.60
2023-03-07T10:29:30.247Z,73.50
2023-03-07T10:30:30.270Z,73.08
2023-03-07T10:31:31.100Z,74.22
2023-03-07T10:32:30.243Z,74.22
2023-03-07T10:33:30.207Z,74.33
2023-03-07T10:34:32.405Z,73.60
2023-03-07T10:35:31.232Z,74.43
2023-03-07T10:36:30.171Z,74.12
2023-03-07T10:37:30.158Z,74.33
2023-03-07T10:38:30.156Z,74.63
2023-03-07T10:39:30.141Z,74.63
2023-03-07T10:40:30.176Z,74.12
2023-03-07T10:41:30.105Z,73.91
2023-03-07T10:42:30.105Z,73.71
2023-03-07T10:43:30.105Z,74.95
2023-03-07T10:44:30.085Z,74.74
2023-03-07T10:45:30.094Z,74.43
2023-03-07T10:46:30.139Z,73.91
2023-03-07T10:47:30.068Z,73.71
2023-03-07T10:48:30.059Z,73.71
2023-03-07T10:49:30.052Z,74.02
2023-03-07T10:50:30.021Z,74.63
2023-03-07T10:51:30.013Z,74.84
2023-03-07T10:52:30.034Z,74.74
2023-03-07T10:53:29.998Z,74.63
2023-03-07T10:54:30.291Z,76.29
2023-03-07T10:55:30.983Z,76.29
2023-03-07T10:56:29.975Z,75.50
2023-03-07T10:57:29.981Z,76.39
2023-03-07T10:58:29.940Z,76.39
2023-03-07T10:59:29.944Z,75.57
2023-03-07T11:00:29.926Z,75.98
2023-03-07T11:01:29.951Z,76.18
2023-03-07T11:02:29.920Z,77.33
2023-03-07T11:03:31.208Z,77.22
2023-03-07T11:04:29.909Z,77.74
2023-03-07T11:05:29.873Z,77.60
2023-03-07T11:06:29.881Z,77.08
2023-03-07T11:07:29.890Z,77.19
2023-03-07T11:08:29.861Z,77.84
2023-03-07T11:09:29.852Z,77.94
2023-03-07T11:10:29.843Z,77.43
2023-03-07T11:11:29.814Z,78.53
2023-03-07T11:12:29.851Z,78.11
2023-03-07T11:13:29.826Z,78.39
2023-03-07T11:14:29.798Z,77.39
2023-03-07T11:15:29.791Z,77.81
2023-03-07T11:16:29.830Z,77.91
2023-03-07T11:17:29.762Z,78.01
2023-03-07T11:18:29.791Z,77.87
2023-03-07T11:19:29.734Z,77.67
2023-03-07T11:20:30.656Z,77.39
2023-03-07T11:21:30.723Z,77.43
2023-03-07T11:22:29.711Z,77.81
2023-03-07T11:23:30.747Z,78.49
2023-03-07T11:24:29.738Z,77.77
2023-03-07T11:25:29.705Z,78.59
2023-03-07T11:26:29.969Z,78.49
2023-03-07T11:27:30.654Z,78.70
2023-03-07T11:28:29.675Z,79.52
2023-03-07T11:29:29.646Z,79.32
2023-03-07T11:30:29.645Z,79.32
2023-03-07T11:31:29.636Z,79.32
2023-03-07T11:32:29.647Z,79.66
2023-03-07T11:33:29.641Z,80.18
2023-03-07T11:34:29.634Z,80.49
2023-03-07T11:35:29.639Z,79.49
2023-03-07T11:36:29.576Z,80.80
2023-03-07T11:37:29.568Z,80.63
2023-03-07T11:38:29.559Z,80.74
2023-03-07T11:39:29.579Z,82.18
2023-03-07T11:40:29.556Z,81.01
2023-03-07T11:41:29.545Z,81.94
2023-03-07T11:42:29.511Z,82.08
2023-03-07T11:43:29.506Z,81.87
2023-03-07T11:44:29.573Z,81.46
2023-03-07T11:45:29.515Z,81.87
2023-03-07T11:46:29.525Z,82.50
2023-03-07T11:47:29.479Z,82.18
2023-03-07T11:48:29.464Z,82.08
2023-03-07T11:49:29.473Z,82.18
2023-03-07T11:50:29.442Z,82.60
2023-03-07T11:51:29.426Z,81.67
2023-03-07T11:52:29.431Z,81.25
2023-03-07T11:53:29.427Z,82.29
2023-03-07T11:54:29.390Z,82.70
2023-03-07T11:55:29.387Z,81.87
2023-03-07T11:56:29.388Z,82.18
2023-03-07T11:57:29.410Z,82.60
2023-03-07T11:58:29.392Z,82.22
2023-03-07T11:59:29.351Z,81.77
2023-03-07T12:00:29.352Z,81.87
2023-03-07T12:01:29.351Z,82.08
2023-03-07T12:02:30.359Z,81.77
2023-03-07T12:03:29.312Z,81.56
2023-03-07T12:04:29.307Z,81.35
2023-03-07T12:05:29.448Z,80.80
2023-03-07T12:06:29.303Z,80.84
2023-03-07T12:07:30.963Z,80.74
2023-03-07T12:08:29.277Z,80.80
2023-03-07T12:09:29.249Z,80.39
2023-03-07T12:10:29.234Z,80.18
2023-03-07T12:11:29.266Z,80.35
2023-03-07T12:12:29.231Z,79.42
2023-03-07T12:13:31.202Z,79.01
2023-03-07T12:14:29.209Z,79.73
2023-03-07T12:15:29.212Z,79.01
2023-03-07T12:16:29.274Z,78.80
2023-03-07T12:17:29.184Z,79.38
2023-03-07T12:18:29.236Z,78.49
2023-03-07T12:19:30.634Z,79.32
2023-03-07T12:20:29.167Z,78.91
2023-03-07T12:21:29.159Z,79.22
2023-03-07T12:22:29.145Z,79.32
2023-03-07T12:23:29.136Z,79.01
2023-03-07T12:24:29.114Z,79.32
2023-03-07T12:25:29.108Z,79.32
2023-03-07T12:26:29.102Z,79.46
2023-03-07T12:27:29.114Z,79.52
2023-03-07T12:28:29.085Z,79.63
2023-03-07T12:29:29.072Z,79.32
2023-03-07T12:30:29.067Z,78.91
2023-03-07T12:31:29.147Z,79.52
2023-03-07T12:32:29.297Z,79.32
2023-03-07T12:33:29.180Z,79.39
2023-03-07T12:34:29.024Z,79.29
2023-03-07T12:35:29.034Z,79.70
2023-03-07T12:36:29.056Z,79.49
2023-03-07T12:37:28.994Z,80.18
2023-03-07T12:38:28.978Z,79.36
2023-03-07T12:39:28.971Z,79.70
2023-03-07T12:40:28.950Z,79.39
2023-03-07T12:41:28.964Z,80.08
2023-03-07T12:42:28.942Z,79.91
2023-03-07T12:43:28.965Z,80.49
2023-03-07T12:44:28.948Z,80.80
2023-03-07T12:45:29.855Z,80.29
2023-03-07T12:46:28.990Z,80.29
2023-03-07T12:47:28.920Z,79.66
2023-03-07T12:48:28.878Z,79.56
2023-03-07T12:49:30.936Z,79.66
2023-03-07T12:50:28.885Z,80.39
2023-03-07T12:51:28.854Z,79.97
2023-03-07T12:52:28.861Z,79.66